createdAt,value
2019-01-27T00:00:40.704Z,96384.33
2019-01-27T00:03:10.210Z,96378.92
2019-01-27T00:05:39.797Z,96386.33
2019-01-27T00:08:13.501Z,96385.53
2019-01-27T00:10:40.507Z,96386.22
2019-01-27T00:13:09.993Z,96391.19
2019-01-27T00:15:39.497Z,96378.39
2019-01-27T00:18:08.988Z,96379.36
2019-01-27T00:20:38.479Z,96380.37
2019-01-27T00:23:07.979Z,96377.09
2019-01-27T00:25:37.452Z,96368.64
2019-01-27T00:28:06.931Z,96368.08
2019-01-27T00:30:36.358Z,96368.94
2019-01-27T00:33:05.837Z,96368.42
2019-01-27T00:35:35.318Z,96376.07
2019-01-27T00:38:04.835Z,96379.83
2019-01-27T00:40:34.319Z,96381.61
2019-01-27T00:43:03.778Z,96384.78
2019-01-27T00:45:33.280Z,96387.17
2019-01-27T00:48:05.497Z,96382.88
2019-01-27T00:50:34.916Z,96370.28
2019-01-27T00:53:04.352Z,96376.46
2019-01-27T00:55:33.838Z,96377.32
2019-01-27T00:58:03.315Z,96390.63
2019-01-27T01:00:32.797Z,96382.20
2019-01-27T01:03:02.273Z,96381.42
2019-01-27T01:05:31.757Z,96391.84
2019-01-27T01:08:01.269Z,96396.00
2019-01-27T01:10:30.762Z,96397.86
2019-01-27T01:13:00.223Z,96388.30
2019-01-27T01:15:29.734Z,96388.70
2019-01-27T01:17:59.257Z,96375.64
2019-01-27T01:20:28.777Z,96374.88
2019-01-27T01:22:58.278Z,96370.55
2019-01-27T01:25:27.670Z,96374.88
2019-01-27T01:27:57.146Z,96368.95
2019-01-27T01:30:29.919Z,96380.22
2019-01-27T01:32:59.381Z,96373.59
2019-01-27T01:35:28.869Z,96362.92
2019-01-27T01:37:58.357Z,96363.37
2019-01-27T01:40:27.834Z,96357.31
2019-01-27T01:42:57.303Z,96345.06
2019-01-27T01:45:39.370Z,96301.01
2019-01-27T01:48:08.851Z,96335.66
2019-01-27T01:50:38.274Z,96323.78
2019-01-27T01:53:07.862Z,96324.01
2019-01-27T01:55:37.360Z,96331.09
2019-01-27T01:58:07.530Z,96331.70
2019-01-27T02:00:37.018Z,96328.72
2019-01-27T02:03:06.494Z,96324.27
2019-01-27T02:05:36.066Z,96322.19
2019-01-27T02:08:05.572Z,96309.95
2019-01-27T02:10:35.159Z,96310.02
2019-01-27T02:13:04.702Z,96300.21
2019-01-27T02:15:38.895Z,96296.64
2019-01-27T02:18:08.366Z,96291.86
2019-01-27T02:20:37.844Z,96282.08
2019-01-27T02:23:07.367Z,96274.71
2019-01-27T02:25:36.849Z,96270.02
2019-01-27T02:28:06.284Z,96264.49
2019-01-27T02:30:35.684Z,96258.19
2019-01-27T02:33:05.184Z,96252.91
2019-01-27T02:35:34.626Z,96248.94
2019-01-27T02:38:04.103Z,96242.98
2019-01-27T02:40:33.596Z,96237.94
2019-01-27T02:43:03.098Z,96233.91
2019-01-27T02:45:32.574Z,96225.73
2019-01-27T02:48:02.061Z,96219.80
2019-01-27T02:50:31.563Z,96210.47
2019-01-27T02:53:00.965Z,96204.63
2019-01-27T02:55:49.889Z,96200.26
2019-01-27T02:58:19.402Z,96198.88
2019-01-27T03:00:48.968Z,96196.56
2019-01-27T03:03:18.618Z,96190.13
2019-01-27T03:06:01.945Z,96182.33
2019-01-27T03:08:33.031Z,96182.72
2019-01-27T03:11:02.503Z,96174.50
2019-01-27T03:13:31.975Z,96171.62
2019-01-27T03:16:01.479Z,96165.38
2019-01-27T03:18:30.879Z,96159.06
2019-01-27T03:21:00.371Z,96151.80
2019-01-27T03:23:29.862Z,96149.03
2019-01-27T03:25:59.337Z,96151.92
2019-01-27T03:28:28.811Z,96154.24
2019-01-27T03:30:58.325Z,96155.62
2019-01-27T03:33:27.823Z,96160.73
2019-01-27T03:35:57.223Z,96152.58
2019-01-27T03:38:26.724Z,96154.18
2019-01-27T03:40:56.061Z,96156.65
2019-01-27T03:43:25.534Z,96148.78
2019-01-27T03:45:54.963Z,96148.56
2019-01-27T03:48:24.372Z,96147.83
2019-01-27T03:50:53.850Z,96142.53
2019-01-27T03:53:23.349Z,96136.44
2019-01-27T03:55:52.819Z,96136.22
2019-01-27T03:58:22.299Z,96130.71
2019-01-27T04:00:51.813Z,96133.89
2019-01-27T04:03:21.298Z,96128.20
2019-01-27T04:05:50.704Z,96132.91
2019-01-27T04:08:20.129Z,96130.59
2019-01-27T04:10:49.618Z,96123.41
2019-01-27T04:13:19.023Z,96125.95
2019-01-27T04:15:48.539Z,96128.52
2019-01-27T04:18:18.027Z,96123.30
2019-01-27T04:20:47.430Z,96114.23
2019-01-27T04:23:16.866Z,96107.30
2019-01-27T04:25:46.273Z,96108.20
2019-01-27T04:28:15.831Z,96108.99
2019-01-27T04:30:45.339Z,96115.42
2019-01-27T04:33:14.828Z,96123.50
2019-01-27T04:35:44.310Z,96114.50
2019-01-27T04:38:13.811Z,96106.38
2019-01-27T04:40:43.210Z,96106.82
2019-01-27T04:43:12.612Z,96101.08
2019-01-27T04:45:42.111Z,96095.98
2019-01-27T04:48:11.591Z,96097.35
2019-01-27T04:50:41.075Z,96093.55
2019-01-27T04:53:10.580Z,96072.50
2019-01-27T04:55:40.047Z,96067.70
2019-01-27T04:58:09.528Z,96066.03
2019-01-27T05:00:39.017Z,96060.00
2019-01-27T05:03:12.856Z,96050.77
2019-01-27T05:05:42.346Z,96040.17
2019-01-27T05:08:11.764Z,96033.31
2019-01-27T05:10:41.095Z,96031.14
2019-01-27T05:13:10.569Z,96031.16
2019-01-27T05:15:40.126Z,96033.31
2019-01-27T05:18:09.607Z,96033.38
2019-01-27T05:20:39.080Z,96033.00
2019-01-27T05:23:08.590Z,96032.05
2019-01-27T05:25:38.064Z,96030.05
2019-01-27T05:28:07.476Z,96018.07
2019-01-27T05:30:36.974Z,96006.53
2019-01-27T05:33:06.451Z,96004.97
2019-01-27T05:35:36.000Z,96017.33
2019-01-27T05:38:05.510Z,96010.68
2019-01-27T05:40:34.826Z,96015.31
2019-01-27T05:43:04.403Z,96020.14
2019-01-27T05:45:33.826Z,96023.58
2019-01-27T05:48:03.301Z,96020.39
2019-01-27T05:50:32.780Z,96018.55
2019-01-27T05:53:02.281Z,96011.28
2019-01-27T05:55:31.758Z,96009.12
2019-01-27T05:58:01.245Z,96005.64
2019-01-27T06:00:32.321Z,96014.41
2019-01-27T06:03:02.505Z,96022.39
2019-01-27T06:05:31.982Z,96015.91
2019-01-27T06:08:01.479Z,96009.70
2019-01-27T06:10:30.953Z,96007.74
2019-01-27T06:13:00.606Z,96013.91
2019-01-27T06:15:30.119Z,96010.95
2019-01-27T06:17:59.696Z,96008.00
2019-01-27T06:20:29.264Z,96000.47
2019-01-27T06:22:58.765Z,96004.98
2019-01-27T06:25:28.256Z,96005.78
2019-01-27T06:27:57.737Z,96000.50
2019-01-27T06:30:28.641Z,96004.89
2019-01-27T06:33:02.292Z,95997.56
2019-01-27T06:35:31.764Z,95991.12
2019-01-27T06:38:01.384Z,95985.71
2019-01-27T06:40:30.880Z,95986.39
2019-01-27T06:43:00.341Z,95993.92
2019-01-27T06:45:29.836Z,95989.47
2019-01-27T06:47:59.316Z,95984.53
2019-01-27T06:50:28.952Z,95987.05
2019-01-27T06:52:58.450Z,95987.55
2019-01-27T06:55:27.938Z,95985.58
2019-01-27T06:57:57.412Z,95981.83
2019-01-27T07:00:28.986Z,95972.86
2019-01-27T07:03:00.050Z,95964.42
2019-01-27T07:05:31.134Z,95964.52
2019-01-27T07:08:02.216Z,95961.17
2019-01-27T07:10:36.167Z,95947.39
2019-01-27T07:13:07.268Z,95942.30
2019-01-27T07:15:44.449Z,95935.11
2019-01-27T07:18:15.554Z,95926.86
2019-01-27T07:20:52.382Z,95922.90
2019-01-27T07:23:26.229Z,95915.89
2019-01-27T07:25:57.282Z,95917.72
2019-01-27T07:28:40.790Z,95909.40
2019-01-27T07:31:20.931Z,95914.50
2019-01-27T07:33:55.039Z,95911.08
2019-01-27T07:36:41.279Z,95908.94
2019-01-27T07:39:18.030Z,95903.64
2019-01-27T07:41:55.043Z,95895.97
2019-01-27T07:44:36.701Z,95898.48
2019-01-27T07:47:07.754Z,95896.05
2019-01-27T07:49:38.896Z,95893.35
2019-01-27T07:52:09.972Z,95890.07
2019-01-27T07:54:41.049Z,95890.17
2019-01-27T07:57:12.125Z,95880.35
2019-01-27T07:59:49.384Z,95877.45
2019-01-27T08:02:20.354Z,95879.80
2019-01-27T08:04:57.231Z,95873.06
2019-01-27T08:07:28.296Z,95869.66
2019-01-27T08:10:02.102Z,95866.41
2019-01-27T08:12:33.086Z,95864.43
2019-01-27T08:15:13.221Z,95853.03
2019-01-27T08:17:47.039Z,95849.66
2019-01-27T08:20:27.191Z,95854.35
2019-01-27T08:23:03.974Z,95857.02
2019-01-27T08:25:35.048Z,95842.74
2019-01-27T08:28:09.252Z,95844.88
2019-01-27T08:30:55.673Z,95843.25
2019-01-27T08:33:29.564Z,95851.45
2019-01-27T08:36:00.621Z,95847.93
2019-01-27T08:38:31.665Z,95835.30
2019-01-27T08:41:02.819Z,95828.09
2019-01-27T08:43:45.860Z,95822.34
2019-01-27T08:46:19.608Z,95829.55
2019-01-27T08:48:49.067Z,95824.13
2019-01-27T08:51:18.559Z,95815.22
2019-01-27T08:53:47.962Z,95810.34
2019-01-27T08:56:17.480Z,95804.64
2019-01-27T08:58:47.149Z,95807.52
2019-01-27T09:01:18.231Z,95802.26
2019-01-27T09:03:49.377Z,95798.30
2019-01-27T09:06:20.461Z,95790.83
2019-01-27T09:08:54.736Z,95787.25
2019-01-27T09:11:28.926Z,95782.20
2019-01-27T09:14:15.295Z,95785.88
2019-01-27T09:16:52.095Z,95787.13
2019-01-27T09:19:23.209Z,95775.39
2019-01-27T09:22:10.633Z,95779.65
2019-01-27T09:24:44.951Z,95777.41
2019-01-27T09:27:15.991Z,95777.94
2019-01-27T09:29:56.118Z,95770.67
2019-01-27T09:32:33.233Z,95771.50
2019-01-27T09:35:04.323Z,95774.86
2019-01-27T09:37:35.357Z,95772.69
2019-01-27T09:40:22.429Z,95763.03
2019-01-27T09:42:59.241Z,95764.70
2019-01-27T09:45:57.690Z,95759.20
2019-01-27T09:48:21.163Z,95760.46
2019-01-27T09:50:52.235Z,95754.48
2019-01-27T09:53:23.241Z,95747.17
2019-01-27T09:56:00.062Z,95735.05
2019-01-27T09:58:47.680Z,95727.41
2019-01-27T10:01:21.627Z,95729.71
2019-01-27T10:03:55.599Z,95725.48
2019-01-27T10:06:26.700Z,95710.69
2019-01-27T10:08:57.679Z,95714.06
2019-01-27T10:11:31.662Z,95708.03
2019-01-27T10:14:02.717Z,95706.11
2019-01-27T10:16:39.550Z,95700.34
2019-01-27T10:19:10.608Z,95687.69
2019-01-27T10:21:41.653Z,95687.63
2019-01-27T10:24:27.953Z,95683.38
2019-01-27T10:27:15.004Z,95675.78
2019-01-27T10:29:46.081Z,95665.41
2019-01-27T10:32:33.551Z,95661.06
2019-01-27T10:35:08.212Z,95660.01
2019-01-27T10:37:45.025Z,95648.81
2019-01-27T10:40:17.150Z,95656.66
2019-01-27T10:42:51.134Z,95650.47
2019-01-27T10:45:38.377Z,95649.67
2019-01-27T10:48:21.712Z,95643.01
2019-01-27T10:50:56.027Z,95640.66
2019-01-27T10:53:34.874Z,95641.07
2019-01-27T10:56:08.258Z,95628.56
2019-01-27T10:58:48.500Z,95620.82
2019-01-27T11:01:22.330Z,95616.34
2019-01-27T11:03:53.428Z,95603.10
2019-01-27T11:06:40.684Z,95602.52
2019-01-27T11:09:23.673Z,95614.33
2019-01-27T11:12:00.884Z,95614.41
2019-01-27T11:14:35.098Z,95603.58
2019-01-27T11:17:24.535Z,95606.89
2019-01-27T11:19:58.033Z,95598.29
2019-01-27T11:22:47.302Z,95592.59
2019-01-27T11:25:18.427Z,95591.27
2019-01-27T11:27:49.459Z,95594.56
2019-01-27T11:30:20.631Z,95585.78
2019-01-27T11:33:00.492Z,95575.02
2019-01-27T11:35:37.391Z,95585.59
2019-01-27T11:38:24.546Z,95575.41
2019-01-27T11:41:10.686Z,95572.13
2019-01-27T11:43:51.247Z,95576.08
2019-01-27T11:46:38.421Z,95578.00
2019-01-27T11:49:12.279Z,95578.07
2019-01-27T11:51:42.574Z,95572.97
2019-01-27T11:54:12.053Z,95577.95
2019-01-27T11:56:41.439Z,95589.91
2019-01-27T11:59:10.927Z,95592.72
2019-01-27T12:01:40.404Z,95586.62
2019-01-27T12:04:09.925Z,95586.31
2019-01-27T12:06:39.428Z,95583.03
2019-01-27T12:09:09.004Z,95570.11
2019-01-27T12:11:38.476Z,95575.95
2019-01-27T12:14:07.982Z,95578.62
2019-01-27T12:16:37.456Z,95571.96
2019-01-27T12:19:06.925Z,95575.58
2019-01-27T12:21:36.428Z,95565.55
2019-01-27T12:24:05.902Z,95564.22
2019-01-27T12:26:35.374Z,95568.52
2019-01-27T12:29:04.882Z,95561.61
2019-01-27T12:31:34.343Z,95557.78
2019-01-27T12:34:03.822Z,95567.87
2019-01-27T12:36:33.335Z,95542.33
2019-01-27T12:39:04.209Z,95559.72
2019-01-27T12:41:33.714Z,95542.49
2019-01-27T12:44:03.189Z,95531.75
2019-01-27T12:46:32.657Z,95549.74
2019-01-27T12:49:02.160Z,95540.70
2019-01-27T12:51:31.627Z,95540.05
2019-01-27T12:54:01.225Z,95554.28
2019-01-27T12:56:31.056Z,95543.77
2019-01-27T12:59:00.518Z,95534.97
2019-01-27T13:01:29.987Z,95533.73
2019-01-27T13:03:59.477Z,95526.66
2019-01-27T13:06:29.049Z,95524.24
2019-01-27T13:08:58.614Z,95531.91
2019-01-27T13:11:28.113Z,95515.23
2019-01-27T13:13:57.672Z,95529.72
2019-01-27T13:16:27.351Z,95517.56
2019-01-27T13:18:56.864Z,95502.64
2019-01-27T13:21:26.348Z,95515.92
2019-01-27T13:23:55.824Z,95515.21
2019-01-27T13:26:25.431Z,95507.88
2019-01-27T13:28:54.904Z,95516.70
2019-01-27T13:31:24.364Z,95522.41
2019-01-27T13:34:00.460Z,95520.77
2019-01-27T13:36:30.051Z,95515.03
2019-01-27T13:38:59.531Z,95509.30
2019-01-27T13:41:29.041Z,95512.59
2019-01-27T13:43:58.572Z,95512.87
2019-01-27T13:46:28.058Z,95504.80
2019-01-27T13:48:57.867Z,95497.54
2019-01-27T13:51:27.350Z,95501.33
2019-01-27T13:53:56.835Z,95500.25
2019-01-27T13:56:26.420Z,95505.82
2019-01-27T13:58:55.841Z,95513.19
2019-01-27T14:01:25.386Z,95498.58
2019-01-27T14:03:54.980Z,95509.45
2019-01-27T14:06:24.458Z,95498.60
2019-01-27T14:08:53.853Z,95503.80
2019-01-27T14:11:23.327Z,95501.39
2019-01-27T14:13:52.867Z,95497.53
2019-01-27T14:16:22.382Z,95493.69
2019-01-27T14:18:51.877Z,95499.06
2019-01-27T14:21:21.384Z,95501.38
2019-01-27T14:23:50.886Z,95499.85
2019-01-27T14:26:20.347Z,95487.92
2019-01-27T14:28:49.857Z,95488.37
2019-01-27T14:31:19.323Z,95495.06
2019-01-27T14:33:48.859Z,95493.94
2019-01-27T14:36:18.438Z,95487.92
2019-01-27T14:38:48.008Z,95500.90
2019-01-27T14:41:17.587Z,95505.52
2019-01-27T14:43:47.292Z,95509.20
2019-01-27T14:46:16.759Z,95507.67
2019-01-27T14:48:46.248Z,95499.19
2019-01-27T14:51:15.733Z,95492.56
2019-01-27T14:53:45.196Z,95481.27
2019-01-27T14:56:14.676Z,95489.84
2019-01-27T14:58:44.319Z,95501.20
2019-01-27T15:01:14.060Z,95495.73
2019-01-27T15:03:43.556Z,95491.79
2019-01-27T15:06:13.123Z,95496.44
2019-01-27T15:08:45.949Z,95491.47
2019-01-27T15:11:13.861Z,95492.16
2019-01-27T15:13:43.559Z,95487.20
2019-01-27T15:16:13.246Z,95497.78
2019-01-27T15:18:42.725Z,95497.14
2019-01-27T15:21:12.208Z,95490.20
2019-01-27T15:23:41.722Z,95484.52
2019-01-27T15:26:11.197Z,95487.66
2019-01-27T15:28:40.770Z,95491.42
2019-01-27T15:31:10.294Z,95493.33
2019-01-27T15:33:45.310Z,95490.75
2019-01-27T15:36:14.841Z,95469.50
2019-01-27T15:38:44.526Z,95485.39
2019-01-27T15:41:14.255Z,95481.55
2019-01-27T15:43:48.565Z,95475.97
2019-01-27T15:46:14.983Z,95479.82
2019-01-27T15:48:44.452Z,95481.02
2019-01-27T15:51:13.954Z,95481.75
2019-01-27T15:53:43.432Z,95487.79
2019-01-27T15:56:12.931Z,95487.87
2019-01-27T15:58:42.552Z,95483.60
2019-01-27T16:01:12.007Z,95487.05
2019-01-27T16:03:41.539Z,95494.81
2019-01-27T16:06:11.226Z,95493.38
2019-01-27T16:08:40.850Z,95495.55
2019-01-27T16:11:10.330Z,95507.61
2019-01-27T16:13:39.996Z,95505.48
2019-01-27T16:16:09.525Z,95508.25
2019-01-27T16:18:39.053Z,95504.56
2019-01-27T16:21:08.566Z,95515.44
2019-01-27T16:23:42.320Z,95505.86
2019-01-27T16:26:11.817Z,95503.97
2019-01-27T16:28:41.291Z,95505.21
2019-01-27T16:31:27.725Z,95506.11
2019-01-27T16:33:58.785Z,95505.08
2019-01-27T16:36:28.261Z,95507.88
2019-01-27T16:38:57.865Z,95500.41
2019-01-27T16:41:27.653Z,95486.34
2019-01-27T16:43:57.224Z,95493.64
2019-01-27T16:46:26.843Z,95494.58
2019-01-27T16:48:56.304Z,95505.19
2019-01-27T16:51:25.802Z,95504.31
2019-01-27T16:53:55.315Z,95504.78
2019-01-27T16:56:44.169Z,95512.63
2019-01-27T16:59:13.673Z,95503.70
2019-01-27T17:01:43.148Z,95501.98
2019-01-27T17:04:12.621Z,95500.23
2019-01-27T17:06:42.131Z,95498.79
2019-01-27T17:09:11.628Z,95502.28
2019-01-27T17:11:41.139Z,95495.55
2019-01-27T17:14:10.615Z,95489.30
2019-01-27T17:16:40.312Z,95494.99
2019-01-27T17:19:09.814Z,95491.80
2019-01-27T17:21:39.431Z,95508.93
2019-01-27T17:24:08.908Z,95508.97
2019-01-27T17:26:38.517Z,95500.25
2019-01-27T17:29:08.010Z,95489.17
2019-01-27T17:31:44.522Z,95495.45
2019-01-27T17:34:08.810Z,95491.81
2019-01-27T17:36:38.306Z,95494.45
2019-01-27T17:39:09.570Z,95482.56
2019-01-27T17:41:39.441Z,95491.88
2019-01-27T17:44:09.103Z,95502.73
2019-01-27T17:46:38.585Z,95498.77
2019-01-27T17:49:08.262Z,95507.84
2019-01-27T17:51:37.787Z,95509.58
2019-01-27T17:54:08.459Z,95507.61
2019-01-27T17:56:37.967Z,95501.02
2019-01-27T17:59:11.462Z,95507.30
2019-01-27T18:01:41.928Z,95507.07
2019-01-27T18:04:31.985Z,95510.04
2019-01-27T18:09:42.641Z,95501.25
2019-01-27T18:12:20.017Z,95498.36
2019-01-27T18:14:49.926Z,95486.92
2019-01-27T18:17:19.422Z,95487.11
2019-01-27T18:19:49.792Z,95486.79
2019-01-27T18:22:19.415Z,95476.34
2019-01-27T18:24:48.940Z,95467.89
2019-01-27T18:27:18.419Z,95470.89
2019-01-27T18:29:47.921Z,95468.22
2019-01-27T18:32:17.407Z,95462.27
2019-01-27T18:34:46.894Z,95462.98
2019-01-27T18:37:16.391Z,95455.84
2019-01-27T18:39:45.918Z,95459.37
2019-01-27T18:42:15.394Z,95462.09
2019-01-27T18:44:44.879Z,95462.77
2019-01-27T18:47:14.377Z,95463.42
2019-01-27T18:49:43.852Z,95470.03
2019-01-27T18:52:13.361Z,95468.94
2019-01-27T18:54:44.455Z,95472.61
2019-01-27T18:57:18.452Z,95472.75
2019-01-27T18:59:49.635Z,95471.38
2019-01-27T19:02:36.609Z,95468.23
2019-01-27T19:05:11.946Z,95463.78
2019-01-27T19:07:43.015Z,95458.38
2019-01-27T19:10:14.281Z,95462.61
2019-01-27T19:12:54.131Z,95451.55
2019-01-27T19:15:27.959Z,95450.43
2019-01-27T19:17:59.035Z,95447.78
2019-01-27T19:20:33.020Z,95454.76
2019-01-27T19:23:04.632Z,95446.56
2019-01-27T19:25:51.882Z,95442.42
2019-01-27T19:28:29.547Z,95442.97
2019-01-27T19:31:02.979Z,95436.44
2019-01-27T19:33:40.134Z,95429.87
2019-01-27T19:36:44.446Z,95432.92
2019-01-27T19:39:15.923Z,95432.00
2019-01-27T19:41:46.992Z,95438.55
2019-01-27T19:44:18.042Z,95442.95
2019-01-27T19:46:49.140Z,95445.70
2019-01-27T19:49:36.665Z,95448.48
2019-01-27T19:52:07.801Z,95454.88
2019-01-27T19:54:48.209Z,95446.48
2019-01-27T19:57:19.454Z,95442.55
2019-01-27T19:59:53.462Z,95449.03
2019-01-27T20:02:37.227Z,95452.02
2019-01-27T20:05:25.979Z,95440.34
2019-01-27T20:08:00.599Z,95439.72
2019-01-27T20:10:37.367Z,95447.91
2019-01-27T20:13:20.331Z,95458.80
2019-01-27T20:15:51.536Z,95453.30
2019-01-27T20:18:28.774Z,95454.30
2019-01-27T20:21:02.843Z,95451.95
2019-01-27T20:23:37.121Z,95450.84
2019-01-27T20:26:14.196Z,95439.55
2019-01-27T20:28:45.385Z,95447.59
2019-01-27T20:31:25.911Z,95442.30
2019-01-27T20:33:57.296Z,95436.75
2019-01-27T20:36:28.416Z,95428.53
2019-01-27T20:38:59.544Z,95429.94
2019-01-27T20:41:47.150Z,95413.86
2019-01-27T20:44:43.564Z,95406.45
2019-01-27T20:47:14.642Z,95411.57
2019-01-27T20:50:01.524Z,95403.98
2019-01-27T20:52:32.629Z,95400.37
2019-01-27T20:55:06.778Z,95398.06
2019-01-27T20:57:40.893Z,95389.91
2019-01-27T21:00:25.307Z,95397.63
2019-01-27T21:02:56.395Z,95400.94
2019-01-27T21:05:43.978Z,95386.26
2019-01-27T21:08:27.324Z,95383.83
2019-01-27T21:11:01.232Z,95382.94
2019-01-27T21:13:44.792Z,95382.47
2019-01-27T21:16:21.854Z,95369.55
2019-01-27T21:19:01.863Z,95364.72
2019-01-27T21:21:31.457Z,95360.50
2019-01-27T21:24:00.962Z,95345.05
2019-01-27T21:26:30.481Z,95342.52
2019-01-27T21:28:59.992Z,95357.02
2019-01-27T21:31:29.615Z,95363.68
2019-01-27T21:33:59.139Z,95362.81
2019-01-27T21:36:28.713Z,95356.69
2019-01-27T21:38:58.212Z,95350.87
2019-01-27T21:41:29.584Z,95347.80
2019-01-27T21:43:59.055Z,95349.86
2019-01-27T21:46:28.799Z,95352.78
2019-01-27T21:48:58.255Z,95346.28
2019-01-27T21:51:27.908Z,95330.03
2019-01-27T21:53:57.389Z,95325.58
2019-01-27T21:56:26.900Z,95324.57
2019-01-27T21:58:56.506Z,95329.72
2019-01-27T22:01:26.005Z,95335.37
2019-01-27T22:03:55.571Z,95330.83
2019-01-27T22:06:25.147Z,95325.08
2019-01-27T22:08:54.626Z,95328.94
2019-01-27T22:11:24.278Z,95326.02
2019-01-27T22:13:53.885Z,95320.25
2019-01-27T22:16:23.373Z,95318.60
2019-01-27T22:18:52.863Z,95316.84
2019-01-27T22:21:22.355Z,95312.80
2019-01-27T22:23:51.841Z,95312.45
2019-01-27T22:26:21.356Z,95313.52
2019-01-27T22:28:50.829Z,95311.38
2019-01-27T22:31:20.298Z,95304.19
2019-01-27T22:33:49.799Z,95294.69
2019-01-27T22:36:20.416Z,95294.59
2019-01-27T22:38:49.975Z,95290.84
2019-01-27T22:41:19.485Z,95291.30
2019-01-27T22:43:49.057Z,95288.09
2019-01-27T22:46:18.543Z,95288.25
2019-01-27T22:48:48.127Z,95290.09
2019-01-27T22:51:17.662Z,95287.28
2019-01-27T22:53:47.212Z,95289.43
2019-01-27T22:56:16.739Z,95282.31
2019-01-27T22:58:46.378Z,95287.02
2019-01-27T23:01:17.781Z,95278.53
2019-01-27T23:03:47.262Z,95273.39
2019-01-27T23:06:16.937Z,95270.05
2019-01-27T23:08:46.491Z,95256.66
2019-01-27T23:11:15.988Z,95263.54
2019-01-27T23:14:05.171Z,95265.25
2019-01-27T23:16:34.569Z,95267.53
2019-01-27T23:19:03.929Z,95264.77
2019-01-27T23:21:33.430Z,95259.10
2019-01-27T23:24:02.830Z,95256.53
2019-01-27T23:26:32.312Z,95249.44
2019-01-27T23:29:01.823Z,95241.89
2019-01-27T23:31:31.279Z,95230.73
2019-01-27T23:34:00.875Z,95227.73
2019-01-27T23:36:30.348Z,95225.06
2019-01-27T23:38:59.979Z,95228.72
2019-01-27T23:41:29.579Z,95227.30
2019-01-27T23:43:59.076Z,95220.41
2019-01-27T23:46:28.567Z,95227.97
2019-01-27T23:48:58.004Z,95231.61
2019-01-27T23:51:27.498Z,95221.09
2019-01-27T23:53:56.902Z,95219.12
2019-01-27T23:56:26.402Z,95216.11
2019-01-27T23:58:55.982Z,95222.97
